Time;durP1;ratioP1;P1;durP2;ratioP2;P2;SDS_P1;SDS_P2;PMS_P1;PMS_P2;Temp;Humidity;BMP_temperature;BMP_pressure;BME280_temperature;BME280_humidity;BME280_pressure;Samples;Min_cycle;Max_cycle;Signal;HPM_P1;HPM_P2
2023/06/23 00:00:36;;;;;;;6.68;5.97;;;;;;;16.55;96.65;101888.78;4992834;28;20610;-76
2023/06/23 00:03:02;;;;;;;6.07;5.53;;;;;;;16.50;97.26;101882.06;4993002;28;20054;-76
2023/06/23 00:05:29;;;;;;;5.93;5.03;;;;;;;16.47;97.71;101884.91;4990726;28;20440;-76
2023/06/23 00:07:57;;;;;;;6.68;5.35;;;;;;;16.43;97.55;101889.69;4974361;28;20519;-76
2023/06/23 00:10:23;;;;;;;6.40;4.97;;;;;;;16.40;98.93;101893.28;4991528;28;20055;-76
2023/06/23 00:12:50;;;;;;;8.18;5.53;;;;;;;16.37;98.73;101896.91;4974864;28;20181;-76
2023/06/23 00:15:17;;;;;;;5.50;5.00;;;;;;;16.33;99.03;101899.75;4992449;28;20420;-76
2023/06/23 00:17:46;;;;;;;5.55;5.10;;;;;;;16.31;99.49;101897.50;4991189;28;20478;-76
2023/06/23 00:20:13;;;;;;;6.20;5.22;;;;;;;16.24;100.00;101892.44;4991923;28;20131;-76
2023/06/23 00:22:41;;;;;;;5.68;5.18;;;;;;;16.22;100.00;101902.91;4992249;28;20053;-75
2023/06/23 00:25:09;;;;;;;6.00;5.50;;;;;;;16.20;100.00;101905.28;4991937;28;20063;-76
2023/06/23 00:27:40;;;;;;;6.13;5.57;;;;;;;16.19;100.00;101908.41;4991734;28;20047;-75
2023/06/23 00:30:10;;;;;;;6.50;5.88;;;;;;;16.16;100.00;101906.63;4974383;28;20051;-75
2023/06/23 00:32:38;;;;;;;6.18;5.60;;;;;;;16.14;100.00;101907.06;4974433;28;20489;-75
2023/06/23 00:35:09;;;;;;;7.35;6.55;;;;;;;16.12;100.00;101908.72;4992523;28;20138;-76
2023/06/23 00:37:39;;;;;;;6.88;5.97;;;;;;;16.09;100.00;101915.00;4990616;28;20053;-76
2023/06/23 00:40:15;;;;;;;8.73;7.05;;;;;;;16.06;100.00;101921.25;4974048;28;20047;-76
2023/06/23 00:42:46;;;;;;;7.45;6.05;;;;;;;16.06;100.00;101923.94;4992118;28;20107;-76
2023/06/23 00:45:13;;;;;;;7.10;6.43;;;;;;;16.04;100.00;101924.38;4974348;28;20125;-76
2023/06/23 00:47:42;;;;;;;7.25;6.55;;;;;;;16.04;100.00;101918.28;4974832;28;20043;-75
2023/06/23 00:50:13;;;;;;;7.53;6.82;;;;;;;16.00;100.00;101931.84;4973916;28;20047;-75
2023/06/23 00:52:40;;;;;;;7.60;6.78;;;;;;;15.97;100.00;101927.41;4992155;28;20058;-76
2023/06/23 00:55:07;;;;;;;8.75;7.53;;;;;;;15.93;100.00;101930.22;4991561;28;20047;-75
2023/06/23 00:57:34;;;;;;;8.27;7.43;;;;;;;15.93;100.00;101937.53;4991846;28;20479;-75
2023/06/23 01:00:01;;;;;;;9.80;8.57;;;;;;;15.90;100.00;101925.00;4992000;28;20130;-76
2023/06/23 01:02:28;;;;;;;8.55;7.72;;;;;;;15.89;100.00;101936.94;4991436;28;20046;-75
2023/06/23 01:04:55;;;;;;;10.20;9.07;;;;;;;15.86;100.00;101943.22;4992301;28;20050;-75
2023/06/23 01:07:40;;;;;;;9.60;8.35;;;;;;;15.83;100.00;101944.09;4990127;28;20051;-75
2023/06/23 01:10:20;;;;;;;12.77;9.32;;;;;;;15.81;100.00;101947.22;4990892;28;20531;-75
2023/06/23 01:13:05;;;;;;;10.60;9.50;;;;;;;15.79;100.00;101944.25;4992034;28;20054;-75
2023/06/23 01:15:36;;;;;;;11.55;8.98;;;;;;;15.78;100.00;101950.06;4991997;28;20972;-76
2023/06/23 01:18:20;;;;;;;11.63;10.10;;;;;;;15.75;100.00;101967.78;4990870;28;20118;-75
2023/06/23 01:20:52;;;;;;;11.93;10.32;;;;;;;15.73;100.00;101972.13;4993619;28;20086;-75
2023/06/23 01:23:27;;;;;;;12.40;11.10;;;;;;;15.71;100.00;101977.94;4976551;28;20094;-75
2023/06/23 01:26:32;;;;;;;16.42;13.32;;;;;;;15.70;100.00;101984.50;4977557;28;20055;-75
2023/06/23 01:29:01;;;;;;;22.23;15.40;;;;;;;15.67;100.00;101988.06;4995101;28;20051;-75
2023/06/23 01:31:36;;;;;;;26.17;18.95;;;;;;;15.66;100.00;102002.66;4994442;28;20104;-75
2023/06/23 01:34:08;;;;;;;30.08;21.15;;;;;;;15.61;100.00;101998.63;4994776;28;20054;-76
2023/06/23 01:36:53;;;;;;;34.15;22.35;;;;;;;15.62;100.00;101999.38;4977110;28;20086;-76
2023/06/23 01:39:22;;;;;;;39.15;25.75;;;;;;;15.58;100.00;102004.16;4993970;28;20047;-76
2023/06/23 01:41:56;;;;;;;43.60;27.70;;;;;;;15.57;100.00;102008.03;4994897;28;20043;-76
2023/06/23 01:44:29;;;;;;;44.70;29.58;;;;;;;15.54;100.00;102004.28;4992836;28;20058;-77
2023/06/23 01:46:59;;;;;;;47.22;30.95;;;;;;;15.50;100.00;101997.53;4977207;28;20047;-77
2023/06/23 01:49:31;;;;;;;50.22;31.83;;;;;;;15.47;100.00;101993.06;4992927;28;20043;-76
2023/06/23 01:52:01;;;;;;;50.70;30.25;;;;;;;15.45;100.00;101998.13;4993250;28;20047;-76
2023/06/23 01:54:29;;;;;;;46.72;30.13;;;;;;;15.42;100.00;101997.06;4975883;28;20563;-76
2023/06/23 01:56:56;;;;;;;46.38;28.92;;;;;;;15.40;100.00;102006.75;4976971;28;20047;-76
2023/06/23 01:59:23;;;;;;;42.25;27.55;;;;;;;15.38;100.00;102012.56;4976137;28;20195;-76
2023/06/23 02:01:52;;;;;;;48.45;28.13;;;;;;;15.36;100.00;102014.94;4993182;28;20054;-77
2023/06/23 02:04:19;;;;;;;37.38;25.55;;;;;;;15.34;100.00;102012.69;4976112;28;20138;-74
2023/06/23 02:06:50;;;;;;;37.92;24.98;;;;;;;15.33;100.00;102010.44;4994807;28;20053;-77
2023/06/23 02:09:24;;;;;;;32.20;23.67;;;;;;;15.32;100.00;102001.66;4992179;28;20574;-77
2023/06/23 02:11:51;;;;;;;31.48;22.77;;;;;;;15.31;100.00;102018.19;4994720;28;20050;-77
2023/06/23 02:14:19;;;;;;;31.42;22.15;;;;;;;15.29;100.00;102012.50;4992701;28;20079;-77
2023/06/23 02:16:49;;;;;;;30.52;21.40;;;;;;;15.28;100.00;102014.44;4994644;28;20034;-77
2023/06/23 02:19:17;;;;;;;33.03;21.20;;;;;;;15.28;100.00;102019.06;4994275;28;20430;-77
2023/06/23 02:21:45;;;;;;;32.00;20.80;;;;;;;15.25;100.00;102018.00;4975977;28;20138;-77
2023/06/23 02:24:14;;;;;;;29.40;20.13;;;;;;;15.26;100.00;102024.13;4993953;28;20130;-77
2023/06/23 02:26:44;;;;;;;33.28;19.40;;;;;;;15.23;100.00;102019.63;4993906;28;20046;-77
2023/06/23 02:29:11;;;;;;;27.65;20.83;;;;;;;15.21;100.00;102022.75;4976466;28;20054;-76
2023/06/23 02:31:37;;;;;;;29.35;19.05;;;;;;;15.19;100.00;102027.09;4992783;28;20043;-77
2023/06/23 02:34:04;;;;;;;27.65;20.15;;;;;;;15.19;100.00;102035.16;4992770;28;20050;-77
2023/06/23 02:36:37;;;;;;;28.75;19.60;;;;;;;15.18;100.00;102047.06;4991768;28;20050;-77
2023/06/23 02:39:06;;;;;;;26.20;19.40;;;;;;;15.17;100.00;102053.59;4994110;28;20086;-76
2023/06/23 02:41:35;;;;;;;26.35;18.75;;;;;;;15.16;100.00;102060.16;4993534;28;20050;-76
2023/06/23 02:44:10;;;;;;;25.95;19.13;;;;;;;15.14;100.00;102057.16;4992507;28;20561;-75
2023/06/23 02:46:39;;;;;;;23.00;18.65;;;;;;;15.13;100.00;102066.41;4993649;28;20043;-75
2023/06/23 02:49:10;;;;;;;23.30;18.35;;;;;;;15.12;100.00;102070.25;4993918;28;20570;-76
2023/06/23 02:51:40;;;;;;;23.98;19.40;;;;;;;15.11;100.00;102068.78;4993177;28;20476;-76
2023/06/23 02:54:14;;;;;;;24.20;18.73;;;;;;;15.11;100.00;102076.81;4993572;28;20051;-77
2023/06/23 02:56:43;;;;;;;27.58;18.15;;;;;;;15.11;100.00;102079.50;4993667;28;20458;-77
2023/06/23 02:59:15;;;;;;;24.38;18.08;;;;;;;15.09;100.00;102079.94;4993287;28;20051;-75
2023/06/23 03:01:46;;;;;;;23.95;18.15;;;;;;;15.08;100.00;102085.72;4976081;28;20113;-75
2023/06/23 03:04:13;;;;;;;24.67;18.60;;;;;;;15.06;100.00;102080.06;4992022;28;20071;-77
2023/06/23 03:06:40;;;;;;;26.77;18.60;;;;;;;15.03;100.00;102076.31;4992918;28;20478;-77
2023/06/23 03:09:11;;;;;;;25.67;19.02;;;;;;;15.01;100.00;102082.13;4993267;28;20053;-77
2023/06/23 03:11:38;;;;;;;25.05;18.30;;;;;;;15.00;100.00;102087.91;4991683;28;20106;-77
2023/06/23 03:14:06;;;;;;;22.58;18.70;;;;;;;14.99;100.00;102087.16;4992292;28;20053;-77
2023/06/23 03:17:00;;;;;;;24.70;18.42;;;;;;;14.98;100.00;102096.41;4993237;28;20157;-77
2023/06/23 03:19:46;;;;;;;24.83;19.33;;;;;;;14.98;100.00;102104.44;4974834;28;20133;-77
2023/06/23 03:22:29;;;;;;;23.27;18.80;;;;;;;14.98;100.00;102099.06;4991691;28;20126;-77
2023/06/23 03:25:02;;;;;;;27.75;18.70;;;;;;;15.00;100.00;102098.66;4975704;28;20142;-77
2023/06/23 03:27:32;;;;;;;29.70;18.77;;;;;;;14.99;100.00;102099.81;4975255;28;20931;-77
2023/06/23 03:30:07;;;;;;;32.50;19.63;;;;;;;14.99;100.00;102105.19;4993124;28;20054;-77
2023/06/23 03:32:40;;;;;;;24.60;19.17;;;;;;;14.98;100.00;102101.75;4992967;28;20122;-77
2023/06/23 03:35:14;;;;;;;23.15;19.70;;;;;;;14.96;100.00;102103.38;4992633;28;20118;-77
2023/06/23 03:37:50;;;;;;;27.23;19.33;;;;;;;14.96;100.00;102109.50;4993126;28;20047;-77
2023/06/23 03:40:20;;;;;;;31.23;19.23;;;;;;;14.97;100.00;102104.88;4992881;28;20055;-77
2023/06/23 03:42:53;;;;;;;27.83;19.38;;;;;;;14.99;100.00;102105.19;4992985;28;20500;-77
2023/06/23 03:45:23;;;;;;;26.48;20.08;;;;;;;15.00;100.00;102112.03;4992675;28;20122;-77
2023/06/23 03:47:56;;;;;;;28.20;19.95;;;;;;;15.01;100.00;102119.66;4992913;28;20051;-77
2023/06/23 03:50:26;;;;;;;27.33;19.33;;;;;;;15.06;100.00;102120.28;4992219;28;20523;-77
2023/06/23 03:52:55;;;;;;;31.10;20.90;;;;;;;15.08;100.00;102118.66;4993101;28;20047;-77
2023/06/23 03:55:26;;;;;;;28.25;20.60;;;;;;;15.11;100.00;102127.78;4992308;28;20051;-77
2023/06/23 03:57:55;;;;;;;35.45;20.65;;;;;;;15.12;100.00;102119.28;4975843;28;20106;-77
2023/06/23 04:00:22;;;;;;;32.80;19.33;;;;;;;15.15;100.00;102118.41;4992319;28;20054;-78
2023/06/23 04:02:51;;;;;;;33.13;20.55;;;;;;;15.20;100.00;102123.19;4993052;28;20558;-78
2023/06/23 04:05:21;;;;;;;31.00;20.13;;;;;;;15.21;100.00;102122.00;4992474;28;20256;-77
2023/06/23 04:07:49;;;;;;;27.70;19.67;;;;;;;15.22;100.00;102133.47;4992793;28;20074;-77
2023/06/23 04:10:20;;;;;;;29.33;19.17;;;;;;;15.22;100.00;102130.81;4992006;28;20061;-76
2023/06/23 04:12:48;;;;;;;27.65;18.63;;;;;;;15.25;100.00;102137.97;4992608;28;20047;-77
2023/06/23 04:15:18;;;;;;;31.58;19.60;;;;;;;15.25;100.00;102140.66;4992242;28;20397;-77
2023/06/23 04:17:45;;;;;;;33.22;19.98;;;;;;;15.27;100.00;102143.66;4992379;28;20046;-77
2023/06/23 04:20:14;;;;;;;31.33;20.27;;;;;;;15.29;100.00;102149.34;4992089;28;20059;-77
2023/06/23 04:22:44;;;;;;;31.95;21.17;;;;;;;15.29;100.00;102150.09;4992336;28;20810;-76
2023/06/23 04:25:12;;;;;;;27.70;20.27;;;;;;;15.33;100.00;102148.03;4992208;28;20047;-77
2023/06/23 04:27:41;;;;;;;32.05;21.30;;;;;;;15.37;100.00;102142.53;4992320;28;20047;-77
2023/06/23 04:30:09;;;;;;;30.02;21.20;;;;;;;15.42;100.00;102147.34;4992231;28;20042;-77
2023/06/23 04:32:39;;;;;;;36.17;20.95;;;;;;;15.48;100.00;102153.63;4991758;28;20134;-77
2023/06/23 04:35:06;;;;;;;33.70;21.55;;;;;;;15.55;100.00;102160.69;4992396;28;20046;-77
2023/06/23 04:37:44;;;;;;;32.58;21.88;;;;;;;15.60;100.00;102160.13;4992145;28;20101;-77
2023/06/23 04:40:29;;;;;;;34.92;22.15;;;;;;;15.64;100.00;102158.78;4992189;28;20051;-77
2023/06/23 04:43:05;;;;;;;33.15;20.55;;;;;;;15.65;100.00;102170.28;4992528;28;20042;-77
2023/06/23 04:45:33;;;;;;;31.45;21.50;;;;;;;15.65;100.00;102181.03;4991876;28;20126;-76
2023/06/23 04:48:02;;;;;;;31.50;21.65;;;;;;;15.67;100.00;102184.00;4991972;28;20514;-76
2023/06/23 04:50:31;;;;;;;33.28;21.73;;;;;;;15.68;100.00;102180.88;4991581;28;20047;-76
2023/06/23 04:53:05;;;;;;;33.53;21.30;;;;;;;15.74;100.00;102189.13;4992022;28;20043;-76
2023/06/23 04:55:35;;;;;;;30.83;22.02;;;;;;;15.79;100.00;102180.50;4995226;28;20129;-76
2023/06/23 04:58:05;;;;;;;34.40;21.55;;;;;;;15.83;100.00;102183.06;4995428;28;20105;-76
2023/06/23 05:00:33;;;;;;;34.72;22.70;;;;;;;15.90;100.00;102185.47;4994939;28;20053;-76
2023/06/23 05:03:01;;;;;;;37.05;22.75;;;;;;;15.97;100.00;102185.97;4995271;28;20427;-76
2023/06/23 05:05:30;;;;;;;32.00;21.75;;;;;;;16.03;100.00;102186.09;4994770;28;20053;-76
2023/06/23 05:08:00;;;;;;;33.10;21.48;;;;;;;16.10;100.00;102195.84;4995237;28;20500;-76
2023/06/23 05:10:29;;;;;;;34.22;22.02;;;;;;;16.16;100.00;102188.69;4994394;28;20050;-76
2023/06/23 05:13:00;;;;;;;37.17;23.10;;;;;;;16.61;100.00;102191.50;4995133;28;20053;-76
2023/06/23 05:15:27;;;;;;;36.60;22.73;;;;;;;16.78;100.00;102194.69;4994172;28;20039;-77
2023/06/23 05:17:57;;;;;;;31.40;21.65;;;;;;;16.94;100.00;102190.94;4995278;28;20571;-77
2023/06/23 05:20:26;;;;;;;37.05;22.33;;;;;;;17.82;100.00;102199.78;4994655;28;20058;-77
2023/06/23 05:22:57;;;;;;;35.25;22.17;;;;;;;18.37;99.92;102199.53;4977357;28;20047;-77
2023/06/23 05:25:29;;;;;;;33.22;21.05;;;;;;;18.37;97.80;102198.78;4994432;28;20051;-77
2023/06/23 05:28:00;;;;;;;28.67;20.63;;;;;;;18.62;96.45;102209.13;4995364;28;20089;-76
2023/06/23 05:30:29;;;;;;;31.37;21.07;;;;;;;18.82;94.03;102206.56;4994240;28;20043;-76
2023/06/23 05:32:59;;;;;;;31.55;21.25;;;;;;;18.50;95.23;102207.38;4995080;28;20043;-76
2023/06/23 05:35:28;;;;;;;29.33;20.45;;;;;;;18.22;96.70;102214.88;4994260;28;20150;-76
2023/06/23 05:37:57;;;;;;;28.42;18.52;;;;;;;18.08;97.89;102223.63;4994840;28;20047;-76
2023/06/23 05:40:24;;;;;;;29.60;18.38;;;;;;;17.97;98.57;102218.75;4994058;28;20591;-76
2023/06/23 05:42:51;;;;;;;28.17;17.77;;;;;;;17.99;99.23;102224.44;4995571;28;20046;-76
2023/06/23 05:45:18;;;;;;;35.53;20.70;;;;;;;18.21;98.45;102221.47;4994947;28;20046;-76
2023/06/23 05:47:51;;;;;;;30.25;19.63;;;;;;;18.42;98.23;102222.41;4995484;28;20047;-75
2023/06/23 05:50:28;;;;;;;31.27;19.80;;;;;;;18.78;96.54;102227.63;4995418;28;20502;-76
2023/06/23 05:53:12;;;;;;;33.35;20.13;;;;;;;19.15;93.24;102227.31;4994600;28;20054;-76
2023/06/23 05:55:43;;;;;;;27.65;18.73;;;;;;;19.31;91.64;102233.00;4994018;28;20078;-75
2023/06/23 05:58:12;;;;;;;25.80;18.60;;;;;;;19.61;90.84;102231.06;4994515;28;20110;-75
2023/06/23 06:01:04;;;;;;;25.52;18.13;;;;;;;19.94;88.82;102228.19;4993576;28;20050;-75
2023/06/23 06:03:37;;;;;;;21.67;17.52;;;;;;;20.17;87.12;102237.34;4995455;28;20050;-78
2023/06/23 06:06:06;;;;;;;25.85;18.58;;;;;;;20.42;86.46;102235.22;4977572;28;20046;-78
2023/06/23 06:08:36;;;;;;;25.02;17.75;;;;;;;20.71;84.96;102245.94;4994633;28;20122;-76
2023/06/23 06:11:04;;;;;;;23.33;17.33;;;;;;;20.70;83.55;102255.28;4956146;28;20059;-76
2023/06/23 06:13:35;;;;;;;22.98;17.02;;;;;;;20.63;83.83;102261.09;4954323;28;20076;-79
2023/06/23 06:16:05;;;;;;;22.35;16.77;;;;;;;20.51;84.02;102260.19;4956133;28;20528;-79
2023/06/23 06:18:34;;;;;;;20.88;16.67;;;;;;;20.40;83.68;102259.28;4955827;28;20066;-80
2023/06/23 06:21:02;;;;;;;21.00;16.05;;;;;;;20.40;83.53;102257.34;4956204;28;20048;-80
2023/06/23 06:23:31;;;;;;;17.75;14.95;;;;;;;20.46;83.27;102260.84;4955422;28;20126;-79
2023/06/23 06:26:00;;;;;;;22.30;16.10;;;;;;;20.68;82.41;102270.50;4955939;28;20048;-80
2023/06/23 06:28:28;;;;;;;25.13;16.13;;;;;;;20.79;81.77;102268.69;4955218;28;20054;-79
2023/06/23 06:30:57;;;;;;;18.48;14.68;;;;;;;20.99;80.88;102265.19;4956025;28;20048;-80
2023/06/23 06:33:26;;;;;;;19.20;14.90;;;;;;;21.16;80.71;102273.50;4955498;28;20511;-80
2023/06/23 06:35:55;;;;;;;18.58;14.48;;;;;;;21.33;80.42;102279.84;4955630;28;20080;-81
2023/06/23 06:38:23;;;;;;;19.75;15.10;;;;;;;21.48;79.51;102288.63;4955599;28;20422;-81
2023/06/23 06:40:53;;;;;;;17.98;14.70;;;;;;;21.50;78.19;102288.91;4954488;28;20520;-81
2023/06/23 06:43:20;;;;;;;16.70;13.82;;;;;;;21.67;77.65;102293.69;4954752;28;20514;-80
2023/06/23 06:45:50;;;;;;;14.40;12.15;;;;;;;21.69;75.16;102296.69;4954572;28;20497;-81
2023/06/23 06:48:20;;;;;;;15.68;12.27;;;;;;;21.74;76.00;102299.44;4955635;28;20043;-79
2023/06/23 06:50:47;;;;;;;14.77;13.13;;;;;;;21.76;76.47;102309.81;4955562;28;20054;-79
2023/06/23 06:53:16;;;;;;;16.73;13.10;;;;;;;21.84;74.63;102303.47;4954011;28;20062;-78
2023/06/23 06:55:45;;;;;;;15.68;12.95;;;;;;;21.96;76.81;102307.03;4953826;28;20201;-79
2023/06/23 06:58:12;;;;;;;15.90;13.10;;;;;;;22.07;75.67;102307.09;4955099;28;20529;-79
2023/06/23 07:00:38;;;;;;;18.52;13.65;;;;;;;22.18;74.62;102306.44;4955331;28;20103;-80
2023/06/23 07:03:05;;;;;;;14.65;13.13;;;;;;;22.26;72.96;102307.50;4955056;28;20052;-80
2023/06/23 07:05:33;;;;;;;15.90;12.77;;;;;;;22.37;73.53;102312.25;4954946;28;20047;-80
2023/06/23 07:07:59;;;;;;;13.75;12.32;;;;;;;22.45;73.42;102305.88;4955322;28;20517;-79
2023/06/23 07:10:26;;;;;;;17.85;12.38;;;;;;;22.46;73.27;102301.94;4984773;28;20065;-80
2023/06/23 07:12:52;;;;;;;15.63;12.30;;;;;;;22.37;72.59;102307.56;4993567;28;20492;-79
2023/06/23 07:15:19;;;;;;;12.60;11.30;;;;;;;22.48;73.61;102309.59;4993616;28;20050;-80
2023/06/23 07:17:45;;;;;;;12.82;11.27;;;;;;;22.61;70.91;102313.38;4993637;28;20098;-80
2023/06/23 07:20:12;;;;;;;12.52;10.65;;;;;;;22.66;71.42;102313.88;4993976;28;20046;-78
2023/06/23 07:22:39;;;;;;;11.23;10.13;;;;;;;22.68;71.09;102317.59;4993596;28;20047;-80
2023/06/23 07:25:06;;;;;;;9.98;9.07;;;;;;;22.74;69.74;102314.91;4993741;28;20512;-80
2023/06/23 07:27:32;;;;;;;10.88;9.88;;;;;;;22.83;68.20;102307.31;4993320;28;20122;-80
2023/06/23 07:29:59;;;;;;;9.90;8.90;;;;;;;22.94;68.02;102306.63;4993644;28;20051;-80
2023/06/23 07:32:26;;;;;;;10.98;9.45;;;;;;;23.09;68.45;102309.88;4975944;28;20074;-80
2023/06/23 07:34:53;;;;;;;10.57;8.90;;;;;;;23.22;67.81;102315.59;4993908;28;20105;-80
2023/06/23 07:37:19;;;;;;;9.77;8.95;;;;;;;23.26;66.56;102312.63;4993311;28;20114;-80
2023/06/23 07:39:46;;;;;;;9.27;8.00;;;;;;;23.34;65.97;102321.03;4976404;28;20053;-83
2023/06/23 07:42:13;;;;;;;8.88;7.10;;;;;;;23.52;64.93;102321.34;4993017;28;20055;-79
2023/06/23 07:44:39;;;;;;;9.85;7.65;;;;;;;23.61;64.15;102329.25;4992811;28;20522;-78
2023/06/23 07:47:06;;;;;;;36.75;31.83;;;;;;;23.75;63.79;102327.56;4993207;28;20047;-79
2023/06/23 07:49:33;;;;;;;8.35;7.15;;;;;;;23.89;63.16;102329.28;4993155;28;20075;-79
2023/06/23 07:52:00;;;;;;;7.95;7.13;;;;;;;23.99;62.71;102327.06;4976200;28;20046;-79
2023/06/23 07:54:28;;;;;;;9.55;7.03;;;;;;;24.06;61.95;102328.53;4992895;28;20055;-79
2023/06/23 07:56:56;;;;;;;12.13;6.80;;;;;;;24.16;62.51;102332.47;4993149;28;20046;-80
2023/06/23 07:59:25;;;;;;;8.35;6.78;;;;;;;24.18;62.44;102327.28;4993135;28;20081;-78
2023/06/23 08:01:52;;;;;;;7.72;6.20;;;;;;;24.12;63.16;102326.53;4993288;28;20049;-79
2023/06/23 08:04:20;;;;;;;6.20;5.57;;;;;;;24.41;60.76;102328.72;4993101;28;20129;-79
2023/06/23 08:06:47;;;;;;;5.40;4.90;;;;;;;24.57;60.26;102329.94;4993664;28;20043;-79
2023/06/23 08:09:15;;;;;;;7.18;5.05;;;;;;;24.86;56.79;102334.03;4993309;28;20428;-79
2023/06/23 08:11:42;;;;;;;5.70;5.15;;;;;;;24.77;55.76;102335.09;4992486;28;20046;-80
2023/06/23 08:14:08;;;;;;;5.15;4.65;;;;;;;24.84;55.86;102341.97;4993014;28;20507;-83
2023/06/23 08:16:35;;;;;;;5.90;3.92;;;;;;;25.02;55.50;102335.97;4993026;28;20039;-78
2023/06/23 08:19:02;;;;;;;4.43;4.03;;;;;;;25.17;52.98;102338.41;4993333;28;20452;-79
2023/06/23 08:21:30;;;;;;;4.30;3.90;;;;;;;25.28;52.84;102338.31;4992675;28;20047;-80
2023/06/23 08:23:57;;;;;;;3.63;3.33;;;;;;;25.55;54.29;102334.69;4992671;28;20577;-80
2023/06/23 08:26:23;;;;;;;3.55;3.30;;;;;;;25.52;50.60;102332.22;4992828;28;20445;-80
2023/06/23 08:28:50;;;;;;;3.80;3.60;;;;;;;25.62;51.69;102333.38;4995378;28;20047;-81
2023/06/23 08:31:17;;;;;;;3.30;3.08;;;;;;;25.69;47.78;102327.41;4996305;28;20047;-75
2023/06/23 08:33:44;;;;;;;3.15;2.85;;;;;;;25.79;48.33;102325.09;4996500;28;20504;-76
2023/06/23 08:36:11;;;;;;;3.47;3.20;;;;;;;25.82;48.44;102337.72;4996426;28;20043;-79
2023/06/23 08:38:37;;;;;;;3.47;3.17;;;;;;;25.90;47.16;102336.66;4995898;28;20449;-80
2023/06/23 08:41:06;;;;;;;3.40;3.20;;;;;;;26.04;46.51;102351.16;4996127;28;20570;-76
2023/06/23 08:43:34;;;;;;;3.72;2.95;;;;;;;26.14;47.65;102352.31;4995963;28;20081;-76
2023/06/23 08:46:02;;;;;;;5.00;3.20;;;;;;;26.14;46.03;102354.28;4996543;28;20049;-75
2023/06/23 08:48:30;;;;;;;4.13;3.83;;;;;;;26.20;46.34;102358.47;4995990;28;20070;-75
2023/06/23 08:51:00;;;;;;;3.92;3.50;;;;;;;26.13;46.57;102361.00;4996243;28;20042;-76
2023/06/23 08:53:27;;;;;;;3.83;3.53;;;;;;;26.27;46.15;102367.34;4995131;28;20476;-75
2023/06/23 08:55:55;;;;;;;3.60;3.30;;;;;;;26.50;45.76;102357.69;4995890;28;20581;-75
2023/06/23 08:58:24;;;;;;;4.28;4.00;;;;;;;26.53;46.79;102370.31;4995766;28;20098;-76
2023/06/23 09:00:53;;;;;;;8.18;4.60;;;;;;;26.49;47.68;102365.13;4995958;28;20050;-76
2023/06/23 09:03:21;;;;;;;4.82;4.43;;;;;;;26.74;48.48;102368.59;4995597;28;20135;-75
2023/06/23 09:05:48;;;;;;;5.32;4.22;;;;;;;26.83;48.33;102379.13;4995156;28;20130;-76
2023/06/23 09:08:15;;;;;;;4.32;3.80;;;;;;;26.96;47.37;102381.25;4995169;28;20078;-76
2023/06/23 09:10:42;;;;;;;4.55;4.15;;;;;;;27.19;46.97;102376.97;4994853;28;20393;-76
2023/06/23 09:13:23;;;;;;;5.10;4.70;;;;;;;27.47;47.10;102386.78;4995399;28;20105;-77
2023/06/23 09:15:51;;;;;;;6.50;4.68;;;;;;;27.40;46.51;102390.84;4993662;28;20043;-77
2023/06/23 09:18:33;;;;;;;4.93;3.63;;;;;;;27.02;45.10;102379.19;4990700;28;20093;-77
2023/06/23 09:21:02;;;;;;;5.03;3.50;;;;;;;26.80;44.62;102388.38;4995895;28;20126;-78
2023/06/23 09:23:31;;;;;;;3.60;3.30;;;;;;;27.05;45.98;102386.38;4995034;28;20130;-77
2023/06/23 09:25:59;;;;;;;3.70;3.22;;;;;;;27.32;43.63;102384.50;4994546;28;20050;-77
2023/06/23 09:28:38;;;;;;;3.75;3.38;;;;;;;27.40;44.96;102390.13;4995701;28;20050;-78
2023/06/23 09:31:13;;;;;;;4.32;3.25;;;;;;;27.54;43.89;102399.88;4995248;28;20133;-78
2023/06/23 09:33:51;;;;;;;3.50;3.20;;;;;;;27.61;42.47;102404.00;4995818;28;20134;-77
2023/06/23 09:36:18;;;;;;;4.35;3.90;;;;;;;27.50;43.77;102397.44;4995691;28;20051;-77
2023/06/23 09:38:45;;;;;;;3.85;3.50;;;;;;;27.22;42.72;102400.53;4994991;28;20127;-77
2023/06/23 09:41:14;;;;;;;3.33;3.10;;;;;;;27.28;42.85;102402.47;4994793;28;20073;-78
2023/06/23 09:43:43;;;;;;;3.03;2.83;;;;;;;27.75;41.60;102405.53;4995382;28;20078;-77
2023/06/23 09:46:11;;;;;;;4.30;3.10;;;;;;;27.80;42.52;102399.97;4995598;28;20047;-76
2023/06/23 09:48:40;;;;;;;3.30;3.00;;;;;;;27.78;42.49;102401.75;4994765;28;20057;-75
2023/06/23 09:51:07;;;;;;;3.70;3.40;;;;;;;27.80;43.74;102399.97;4994515;28;20074;-78
2023/06/23 09:53:36;;;;;;;3.53;3.22;;;;;;;27.97;41.15;102405.19;4976737;28;20054;-78
2023/06/23 09:56:05;;;;;;;3.58;3.33;;;;;;;28.08;40.61;102415.94;4992121;28;20073;-79
2023/06/23 09:58:36;;;;;;;3.95;3.45;;;;;;;28.13;40.18;102415.13;4994499;28;20485;-79
2023/06/23 10:01:05;;;;;;;4.88;3.28;;;;;;;28.24;41.91;102402.53;4993026;28;20142;-78
2023/06/23 10:03:32;;;;;;;3.50;3.20;;;;;;;28.68;39.95;102401.72;4994476;28;20050;-78
2023/06/23 10:05:59;;;;;;;3.50;3.08;;;;;;;28.80;39.58;102407.69;4994305;28;20051;-79
2023/06/23 10:08:28;;;;;;;3.30;3.03;;;;;;;28.69;38.96;102411.41;4994315;28;20053;-79
2023/06/23 10:10:54;;;;;;;3.88;3.30;;;;;;;29.02;39.05;102406.53;4994288;28;20548;-78
2023/06/23 10:13:21;;;;;;;4.00;3.20;;;;;;;29.10;38.78;102396.41;4994770;28;20126;-78
2023/06/23 10:15:48;;;;;;;8.35;3.30;;;;;;;29.09;38.58;102406.63;4994933;28;20043;-78
2023/06/23 10:18:15;;;;;;;3.33;3.03;;;;;;;29.00;36.86;102409.81;4994944;28;20047;-78
2023/06/23 10:20:42;;;;;;;3.92;3.63;;;;;;;28.65;36.97;102402.75;4994225;28;20042;-79
2023/06/23 10:23:12;;;;;;;4.53;3.10;;;;;;;28.88;37.49;102398.31;4994797;28;20051;-79
2023/06/23 10:25:43;;;;;;;4.35;3.25;;;;;;;29.25;38.04;102390.31;4995060;28;20125;-79
2023/06/23 10:28:12;;;;;;;4.70;2.88;;;;;;;29.45;35.85;102395.88;4994799;28;20089;-80
2023/06/23 10:30:41;;;;;;;4.82;2.70;;;;;;;29.51;34.68;102391.00;4994535;28;20122;-80
2023/06/23 10:33:16;;;;;;;3.15;2.95;;;;;;;29.64;35.59;102390.19;4995124;28;20156;-79
2023/06/23 10:35:48;;;;;;;2.78;2.67;;;;;;;29.46;33.42;102385.66;4994444;28;20494;-81
2023/06/23 10:38:21;;;;;;;2.53;2.33;;;;;;;29.49;31.95;102392.81;4994956;28;20157;-81
2023/06/23 10:40:54;;;;;;;2.60;2.40;;;;;;;29.42;30.66;102404.44;4978088;28;20094;-79
2023/06/23 10:43:23;;;;;;;2.33;2.13;;;;;;;29.34;31.51;102409.81;4994543;28;20055;-78
2023/06/23 10:45:49;;;;;;;2.75;2.45;;;;;;;29.65;31.32;102407.41;4994191;28;20047;-81
2023/06/23 10:48:18;;;;;;;2.40;2.30;;;;;;;29.74;32.06;102407.66;4994961;28;20134;-80
2023/06/23 10:50:46;;;;;;;5.10;2.70;;;;;;;29.67;32.47;102408.34;4976335;28;20074;-79
2023/06/23 10:53:25;;;;;;;5.35;2.60;;;;;;;29.78;31.91;102407.34;4993849;28;20043;-81
2023/06/23 10:55:58;;;;;;;2.70;2.47;;;;;;;30.02;32.92;102411.75;4994737;28;20081;-77
2023/06/23 10:58:49;;;;;;;6.13;2.70;;;;;;;30.08;32.46;102418.59;4993900;28;20130;-77
2023/06/23 11:01:16;;;;;;;2.80;2.60;;;;;;;29.98;32.39;102417.59;4989268;28;20487;-77
2023/06/23 11:03:43;;;;;;;3.03;2.45;;;;;;;30.12;31.66;102416.22;4975323;28;20554;-77
2023/06/23 11:06:10;;;;;;;8.68;2.40;;;;;;;30.10;31.06;102421.53;4994033;28;20059;-76
2023/06/23 11:08:38;;;;;;;4.90;2.53;;;;;;;29.93;30.93;102418.44;4993345;28;20527;-76
2023/06/23 11:11:10;;;;;;;2.80;2.60;;;;;;;29.75;31.15;102422.88;4993506;28;20055;-76
2023/06/23 11:13:50;;;;;;;3.88;2.75;;;;;;;29.75;32.60;102424.88;4991493;28;20055;-76
2023/06/23 11:16:18;;;;;;;13.00;2.90;;;;;;;29.92;32.14;102427.97;4990960;28;20070;-76
2023/06/23 11:18:52;;;;;;;3.00;2.80;;;;;;;29.92;32.55;102427.22;4992162;28;20050;-76
2023/06/23 11:21:25;;;;;;;4.60;2.53;;;;;;;30.24;33.66;102418.69;4990580;28;20051;-77
2023/06/23 11:24:17;;;;;;;2.63;2.42;;;;;;;30.27;32.82;102417.63;4993399;28;20082;-76